»·PEaware :: DFGCW KGEG-KHQM

DFGCW :: KGEG-KHQM

FLIGHT INFORMATION

Flight Status: Arrived
Operator: Unknown
More flights by this operator :: More flights under this callsign
Pilot: Klaus A. (15485)
Aircraft: PILATUS PC-12 EAGLE
(PC12)
More flights by this aircraft type
Origin: KGEG Spokane Intl
United States
Destination: KHQM Bowerman
United States
More flights between these airports :: More routes between these airports
Route: +GEG6 GEG V2 MWH V2 ELN V187 TCM V187 OLM V204 SOUPY
File this flight plan on PilotEdge
Remarks:
Altitude:
(Current/Filed)
24,000ft
Speed:
(Current/Filed)
230kts
Departed: 23-Apr-20 09:04 AM
Arrived: 23-Apr-20 10:27 AM
Distance/Time
Traveled:
264nm/1:23
Distance/Time
To Go:
Arrived

Flight Plot

Page will automatically refresh every two minutes.

Flight plan parsing failed; only flown route is shown


Map Options




Map Legend


Flown Route
Filed Route
Departure Airport
Arrival Airport
Navaid (VOR, NDB)
Fix

Horizontal Profiles

Position Reports

Time Latitude Longitude Heading Altitude Ground
Speed
23-Apr-20 08:34 47.618827 -117.526877 180 2389ft 0kts
23-Apr-20 08:35 47.618827 -117.526877 180 2389ft 0kts
23-Apr-20 08:36 47.618827 -117.526877 180 2389ft 0kts
23-Apr-20 08:37 47.618827 -117.526877 180 2389ft 0kts
23-Apr-20 08:38 47.618827 -117.526877 180 2389ft 0kts
23-Apr-20 08:39 47.618827 -117.526877 180 2389ft 0kts
23-Apr-20 08:40 47.618827 -117.526877 180 2389ft 0kts
23-Apr-20 08:41 47.618827 -117.526877 180 2389ft 0kts
23-Apr-20 08:42 47.618827 -117.526877 180 2389ft 0kts
23-Apr-20 08:43 47.618827 -117.526877 180 2389ft 0kts
23-Apr-20 08:44 47.618827 -117.526877 180 2389ft 0kts
23-Apr-20 08:45 47.618827 -117.526877 180 2389ft 0kts
23-Apr-20 08:46 47.618827 -117.526877 180 2389ft 0kts
23-Apr-20 08:47 47.618827 -117.526877 180 2389ft 0kts
23-Apr-20 08:48 47.618827 -117.526877 180 2389ft 0kts
23-Apr-20 08:49 47.618827 -117.526877 180 2389ft 0kts
23-Apr-20 08:50 47.618827 -117.526877 180 2389ft 0kts
23-Apr-20 08:51 47.618827 -117.526877 180 2389ft 0kts
23-Apr-20 08:52 47.618827 -117.526877 180 2389ft 0kts
23-Apr-20 08:53 47.618827 -117.526877 180 2389ft 0kts
23-Apr-20 08:54 47.618827 -117.526877 180 2389ft 0kts
23-Apr-20 08:55 47.618258 -117.524382 161 2389ft 10kts
23-Apr-20 08:56 47.617865 -117.521468 91 2389ft 8kts
23-Apr-20 08:57 47.617689 -117.520298 135 2389ft 0kts
23-Apr-20 08:58 47.617689 -117.520298 135 2389ft 0kts
23-Apr-20 08:59 47.617689 -117.520298 135 2389ft 0kts
23-Apr-20 09:00 47.617689 -117.520298 135 2389ft 0kts
23-Apr-20 09:01 47.617628 -117.520237 148 2389ft 3kts
23-Apr-20 09:02 47.616689 -117.521025 243 2389ft 0kts
23-Apr-20 09:03 47.617002 -117.544014 269 2612ft 123kts
23-Apr-20 09:04 47.601892 -117.592681 219 4082ft 143kts
23-Apr-20 09:05 47.574021 -117.634024 223 5827ft 144kts
23-Apr-20 09:06 47.551088 -117.683448 250 7162ft 159kts
23-Apr-20 09:07 47.539117 -117.742835 250 8655ft 152kts
23-Apr-20 09:08 47.527033 -117.803450 250 9983ft 155kts
23-Apr-20 09:09 47.514647 -117.865025 250 11220ft 158kts
23-Apr-20 09:10 47.501989 -117.927677 250 12359ft 161kts
23-Apr-20 09:11 47.489061 -117.991452 250 13409ft 163kts
23-Apr-20 09:12 47.475799 -118.056645 251 14498ft 166kts
23-Apr-20 09:13 47.462364 -118.122493 251 15617ft 169kts
23-Apr-20 09:14 47.448609 -118.189675 251 16644ft 172kts
23-Apr-20 09:15 47.434609 -118.257822 251 17583ft 175kts
23-Apr-20 09:16 47.420328 -118.327097 251 18443ft 177kts
23-Apr-20 09:17 47.405813 -118.397261 251 19257ft 178kts
23-Apr-20 09:18 47.391664 -118.465421 251 19952ft 180kts
23-Apr-20 09:19 47.376855 -118.536503 251 20757ft 182kts
23-Apr-20 09:20 47.361789 -118.608579 251 21541ft 185kts
23-Apr-20 09:21 47.346689 -118.680549 250 22243ft 187kts
23-Apr-20 09:22 47.331212 -118.754071 250 22882ft 189kts
23-Apr-20 09:23 47.315480 -118.828516 250 23464ft 191kts
23-Apr-20 09:24 47.299529 -118.903722 250 23997ft 193kts
23-Apr-20 09:25 47.282968 -118.981516 250 24172ft 211kts
23-Apr-20 09:26 47.264509 -119.067874 250 24168ft 229kts
23-Apr-20 09:27 47.244924 -119.159115 250 24163ft 235kts
23-Apr-20 09:28 47.225049 -119.251291 250 24162ft 237kts
23-Apr-20 09:29 47.206506 -119.344411 255 24167ft 238kts
23-Apr-20 09:30 47.191407 -119.439639 255 24164ft 239kts
23-Apr-20 09:31 47.176254 -119.534659 255 24154ft 239kts
23-Apr-20 09:32 47.160966 -119.629977 255 24154ft 239kts
23-Apr-20 09:34 47.145590 -119.725280 254 24154ft 239kts
23-Apr-20 09:35 47.130168 -119.820341 254 24154ft 239kts
23-Apr-20 09:36 47.114597 -119.915771 254 24154ft 239kts
23-Apr-20 09:37 47.099063 -120.010443 254 24163ft 239kts
23-Apr-20 09:38 47.083402 -120.105357 254 24200ft 238kts
23-Apr-20 09:39 47.067732 -120.199797 254 24200ft 239kts
23-Apr-20 09:40 47.051914 -120.294600 254 24200ft 239kts
23-Apr-20 09:41 47.036002 -120.389445 254 24200ft 239kts
23-Apr-20 09:42 47.026342 -120.485233 274 24205ft 241kts
23-Apr-20 09:43 47.033079 -120.583518 274 24200ft 242kts
23-Apr-20 09:44 47.039802 -120.681725 273 24200ft 242kts
23-Apr-20 09:45 47.046451 -120.780035 273 24200ft 242kts
23-Apr-20 09:46 47.053027 -120.878498 273 24200ft 242kts
23-Apr-20 09:47 47.059524 -120.977082 273 24236ft 241kts
23-Apr-20 09:48 47.065911 -121.075301 273 24255ft 241kts
23-Apr-20 09:49 47.072199 -121.173288 273 24255ft 242kts
23-Apr-20 09:49 47.077414 -121.255591 273 24255ft 242kts
23-Apr-20 09:51 47.084613 -121.370781 273 24255ft 243kts
23-Apr-20 09:52 47.090710 -121.469848 273 24255ft 243kts
23-Apr-20 09:52 47.095712 -121.552204 273 24255ft 243kts
23-Apr-20 09:54 47.102604 -121.667318 272 24255ft 243kts
23-Apr-20 09:54 47.107481 -121.750015 272 24255ft 243kts
23-Apr-20 09:55 47.113189 -121.848105 272 24356ft 240kts
23-Apr-20 09:57 47.119725 -121.962285 272 24356ft 242kts
23-Apr-20 09:57 47.124411 -122.045349 272 24099ft 251kts
23-Apr-20 09:58 47.129968 -122.145245 272 23079ft 239kts
23-Apr-20 09:59 47.135198 -122.240861 272 21984ft 233kts
23-Apr-20 10:00 47.140274 -122.335070 272 20881ft 230kts
23-Apr-20 10:01 47.145311 -122.430054 272 19790ft 237kts
23-Apr-20 10:02 47.128989 -122.520022 238 18705ft 235kts
23-Apr-20 10:03 47.095794 -122.601463 237 17626ft 238kts
23-Apr-20 10:04 47.061484 -122.684830 236 16526ft 239kts
23-Apr-20 10:05 47.029453 -122.762424 236 15986ft 192kts
23-Apr-20 10:06 47.003441 -122.825218 236 16005ft 174kts
23-Apr-20 10:07 46.982950 -122.889424 263 15180ft 176kts
23-Apr-20 10:08 46.980292 -122.960734 264 14276ft 176kts
23-Apr-20 10:09 46.977681 -123.033200 264 13216ft 183kts
23-Apr-20 10:10 46.974887 -123.109829 264 12024ft 192kts
23-Apr-20 10:11 46.971962 -123.188689 264 10830ft 196kts
23-Apr-20 10:12 46.969046 -123.266016 264 9592ft 178kts
23-Apr-20 10:13 46.966380 -123.335328 264 8369ft 166kts
23-Apr-20 10:14 46.963780 -123.401919 264 7152ft 161kts
23-Apr-20 10:15 46.980484 -123.455913 302 6014ft 136kts
23-Apr-20 10:16 47.001545 -123.500359 302 4794ft 131kts
23-Apr-20 10:17 47.018715 -123.545264 258 3585ft 123kts
23-Apr-20 10:18 47.012851 -123.594748 256 2387ft 123kts
23-Apr-20 10:19 47.007081 -123.641703 257 2136ft 118kts
23-Apr-20 10:20 47.001146 -123.689356 256 2140ft 119kts
23-Apr-20 10:21 46.995412 -123.737233 254 2152ft 119kts
23-Apr-20 10:22 46.989557 -123.785066 256 2166ft 119kts
23-Apr-20 10:23 46.984039 -123.830334 256 1548ft 108kts
23-Apr-20 10:24 46.979109 -123.873305 253 918ft 109kts
23-Apr-20 10:25 46.973861 -123.914630 256 260ft 97kts
23-Apr-20 10:26 46.970092 -123.944727 236 23ft 30kts
23-Apr-20 10:27 46.969448 -123.945186 132 23ft 0kts
23-Apr-20 10:28 46.969448 -123.945186 132 23ft 0kts
23-Apr-20 10:29 46.969448 -123.945186 132 23ft 0kts

Navigation Log

Ident Type
Flight plan parsing failed, navigation log unavailable